createdAt,value
2023-01-01T00:01:52.308Z,98202.00
2023-01-01T00:04:19.958Z,98211.00
2023-01-01T00:06:47.583Z,98215.00
2023-01-01T00:09:32.766Z,98213.00
2023-01-01T00:12:01.755Z,98214.00
2023-01-01T00:14:29.374Z,98207.00
2023-01-01T00:16:57.532Z,98218.00
2023-01-01T00:19:25.271Z,98221.00
2023-01-01T00:21:52.881Z,98216.00
2023-01-01T00:24:20.648Z,98218.00
2023-01-01T00:26:48.317Z,98220.00
2023-01-01T00:29:17.290Z,98212.00
2023-01-01T00:31:45.689Z,98224.00
2023-01-01T00:34:13.467Z,98218.00
2023-01-01T00:36:41.086Z,98229.00
2023-01-01T00:39:09.141Z,98219.00
2023-01-01T00:41:36.765Z,98220.00
2023-01-01T00:44:04.439Z,98217.00
2023-01-01T00:46:33.423Z,98212.00
2023-01-01T00:49:01.230Z,98215.00
2023-01-01T00:51:34.947Z,98201.00
2023-01-01T00:54:04.766Z,98204.00
2023-01-01T00:56:32.430Z,98210.00
2023-01-01T00:59:00.326Z,98211.00
2023-01-01T01:01:28.801Z,98206.00
2023-01-01T01:03:58.056Z,98204.00
2023-01-01T01:06:25.719Z,98201.00
2023-01-01T01:08:53.359Z,98202.00
2023-01-01T01:11:23.433Z,98203.00
2023-01-01T01:13:53.131Z,98205.00
2023-01-01T01:16:22.874Z,98211.00
2023-01-01T01:18:51.766Z,98203.00
2023-01-01T01:21:22.691Z,98215.00
2023-01-01T01:23:51.346Z,98208.00
2023-01-01T01:26:20.904Z,98205.00
2023-01-01T01:28:49.962Z,98204.00
2023-01-01T01:31:18.694Z,98203.00
2023-01-01T01:33:46.718Z,98208.00
2023-01-01T01:36:14.943Z,98212.00
2023-01-01T01:38:44.211Z,98214.00
2023-01-01T01:41:26.712Z,98212.00
2023-01-01T01:43:57.758Z,98210.00
2023-01-01T01:46:34.407Z,98224.00
2023-01-01T01:49:05.021Z,98218.00
2023-01-01T01:51:37.807Z,98220.00
2023-01-01T01:54:12.024Z,98219.00
2023-01-01T01:56:46.150Z,98229.00
2023-01-01T01:59:14.764Z,98220.00
2023-01-01T02:01:43.195Z,98213.00
2023-01-01T02:04:12.504Z,98214.00
2023-01-01T02:06:41.084Z,98215.00
2023-01-01T02:09:10.729Z,98213.00
2023-01-01T02:11:38.782Z,98205.00
2023-01-01T02:14:07.314Z,98205.00
2023-01-01T02:16:40.700Z,98206.00
2023-01-01T02:19:18.165Z,98196.00
2023-01-01T02:21:57.508Z,98196.00
2023-01-01T02:24:42.510Z,98196.00
2023-01-01T02:27:19.155Z,98199.00
2023-01-01T02:29:52.115Z,98205.00
2023-01-01T02:32:22.170Z,98205.00
2023-01-01T02:34:59.267Z,98207.00
2023-01-01T02:37:29.426Z,98209.00
2023-01-01T02:40:00.721Z,98205.00
2023-01-01T02:42:30.197Z,98203.00
2023-01-01T02:45:01.437Z,98201.00
2023-01-01T02:47:29.121Z,98210.00
2023-01-01T02:50:02.021Z,98204.00
2023-01-01T02:52:50.330Z,98206.00
2023-01-01T02:55:28.124Z,98203.00
2023-01-01T02:58:23.030Z,98207.00
2023-01-01T03:00:53.512Z,98206.00
2023-01-01T03:03:30.100Z,98201.00
2023-01-01T03:06:24.208Z,98198.00
2023-01-01T03:08:59.213Z,98200.00
2023-01-01T03:11:35.719Z,98195.00
2023-01-01T03:14:09.247Z,98195.00
2023-01-01T03:16:41.938Z,98196.00
2023-01-01T03:19:15.494Z,98205.00
2023-01-01T03:21:45.740Z,98209.00
2023-01-01T03:24:19.363Z,98208.00
2023-01-01T03:26:51.385Z,98210.00
2023-01-01T03:29:19.920Z,98218.00
2023-01-01T03:31:52.090Z,98215.00
2023-01-01T03:34:23.128Z,98219.00
2023-01-01T03:36:56.219Z,98224.00
2023-01-01T03:39:27.882Z,98230.00
2023-01-01T03:42:01.794Z,98226.00
2023-01-01T03:44:34.608Z,98231.00
2023-01-01T03:47:06.015Z,98218.00
2023-01-01T03:49:34.796Z,98226.00
2023-01-01T03:52:15.385Z,98217.00
2023-01-01T03:54:55.229Z,98227.00
2023-01-01T03:57:33.649Z,98225.00
2023-01-01T04:00:08.075Z,98215.00
2023-01-01T04:02:40.467Z,98219.00
2023-01-01T04:05:11.219Z,98222.00
2023-01-01T04:07:40.022Z,98229.00
2023-01-01T04:10:18.093Z,98230.00
2023-01-01T04:12:48.018Z,98235.00
2023-01-01T04:15:15.821Z,98239.00
2023-01-01T04:17:44.823Z,98246.00
2023-01-01T04:20:12.995Z,98248.00
2023-01-01T04:22:41.470Z,98253.00
2023-01-01T04:25:10.854Z,98260.00
2023-01-01T04:27:38.862Z,98249.00
2023-01-01T04:30:08.801Z,98243.00
2023-01-01T04:32:36.475Z,98241.00
2023-01-01T04:35:06.466Z,98247.00
2023-01-01T04:37:36.572Z,98252.00
2023-01-01T04:40:04.882Z,98258.00
2023-01-01T04:42:32.643Z,98257.00
2023-01-01T04:45:00.312Z,98252.00
2023-01-01T04:47:28.062Z,98251.00
2023-01-01T04:49:55.870Z,98257.00
2023-01-01T04:52:25.060Z,98252.00
2023-01-01T04:54:52.716Z,98267.00
2023-01-01T04:57:20.453Z,98265.00
2023-01-01T04:59:48.061Z,98268.00
2023-01-01T05:02:15.796Z,98275.00
2023-01-01T05:04:43.529Z,98275.00
2023-01-01T05:07:11.165Z,98278.00
2023-01-01T05:09:40.146Z,98288.00
2023-01-01T05:12:08.455Z,98293.00
2023-01-01T05:14:36.078Z,98300.00
2023-01-01T05:17:03.719Z,98289.00
2023-01-01T05:19:31.346Z,98297.00
2023-01-01T05:21:59.009Z,98295.00
2023-01-01T05:24:26.665Z,98294.00
2023-01-01T05:26:56.843Z,98301.00
2023-01-01T05:29:24.502Z,98298.00
2023-01-01T05:31:53.202Z,98304.00
2023-01-01T05:34:20.882Z,98302.00
2023-01-01T05:36:48.529Z,98306.00
2023-01-01T05:39:16.231Z,98310.00
2023-01-01T05:41:43.855Z,98313.00
2023-01-01T05:44:12.881Z,98316.00
2023-01-01T05:46:40.901Z,98315.00
2023-01-01T05:49:11.415Z,98319.00
2023-01-01T05:54:06.198Z,98331.00
2023-01-01T05:56:33.857Z,98327.00
2023-01-01T05:59:01.497Z,98321.00
2023-01-01T06:01:31.774Z,98329.00
2023-01-01T06:04:00.853Z,98316.00
2023-01-01T06:06:31.231Z,98315.00
2023-01-01T06:09:00.745Z,98315.00
2023-01-01T06:11:29.056Z,98314.00
2023-01-01T06:13:58.872Z,98310.00
2023-01-01T06:16:28.094Z,98319.00
2023-01-01T06:18:57.372Z,98315.00
2023-01-01T06:21:27.707Z,98325.00
2023-01-01T06:23:56.861Z,98328.00
2023-01-01T06:26:27.340Z,98340.00
2023-01-01T06:28:56.390Z,98333.00
2023-01-01T06:31:24.766Z,98342.00
2023-01-01T06:33:52.791Z,98333.00
2023-01-01T06:36:23.961Z,98326.00
2023-01-01T06:38:53.862Z,98339.00
2023-01-01T06:41:23.846Z,98339.00
2023-01-01T06:43:51.747Z,98338.00
2023-01-01T06:46:21.926Z,98342.00
2023-01-01T06:48:51.929Z,98346.00
2023-01-01T06:51:23.056Z,98342.00
2023-01-01T06:53:51.392Z,98340.00
2023-01-01T06:56:19.838Z,98350.00
2023-01-01T06:58:47.841Z,98344.00
2023-01-01T07:01:17.162Z,98344.00
2023-01-01T07:03:45.854Z,98355.00
2023-01-01T07:06:13.518Z,98364.00
2023-01-01T07:08:42.493Z,98363.00
2023-01-01T07:11:10.408Z,98369.00
2023-01-01T07:13:38.044Z,98375.00
2023-01-01T07:16:12.369Z,98373.00
2023-01-01T07:18:40.923Z,98371.00
2023-01-01T07:21:29.103Z,98379.00
2023-01-01T07:23:59.281Z,98385.00
2023-01-01T07:26:27.827Z,98378.00
2023-01-01T07:28:58.392Z,98395.00
2023-01-01T07:31:32.087Z,98393.00
2023-01-01T07:33:59.819Z,98390.00
2023-01-01T07:36:27.463Z,98401.00
2023-01-01T07:38:55.347Z,98399.00
2023-01-01T07:41:24.326Z,98406.00
2023-01-01T07:43:51.953Z,98398.00
2023-01-01T07:46:19.948Z,98405.00
2023-01-01T07:48:47.608Z,98407.00
2023-01-01T07:51:15.225Z,98412.00
2023-01-01T07:53:42.862Z,98411.00
2023-01-01T07:56:10.628Z,98409.00
2023-01-01T07:58:41.480Z,98407.00
2023-01-01T08:01:11.498Z,98413.00
2023-01-01T08:03:39.329Z,98411.00
2023-01-01T08:06:09.011Z,98415.00
2023-01-01T08:08:36.621Z,98413.00
2023-01-01T08:11:04.713Z,98422.00
2023-01-01T08:13:32.943Z,98422.00
2023-01-01T08:16:02.051Z,98418.00
2023-01-01T08:18:30.000Z,98427.00
2023-01-01T08:20:57.730Z,98428.00
2023-01-01T08:23:25.415Z,98434.00
2023-01-01T08:25:53.059Z,98445.00
2023-01-01T08:28:20.989Z,98441.00
2023-01-01T08:30:48.704Z,98455.00
2023-01-01T08:33:17.653Z,98455.00
2023-01-01T08:35:50.340Z,98446.00
2023-01-01T08:38:21.423Z,98452.00
2023-01-01T08:40:49.010Z,98448.00
2023-01-01T08:43:16.660Z,98450.00
2023-01-01T08:45:45.357Z,98456.00
2023-01-01T08:48:12.966Z,98461.00
2023-01-01T08:50:41.997Z,98462.00
2023-01-01T08:53:09.607Z,98472.00
2023-01-01T08:55:37.231Z,98472.00
2023-01-01T08:58:07.483Z,98477.00
2023-01-01T09:00:35.169Z,98481.00
2023-01-01T09:03:02.826Z,98474.00
2023-01-01T09:05:30.805Z,98477.00
2023-01-01T09:07:59.815Z,98477.00
2023-01-01T09:10:27.505Z,98482.00
2023-01-01T09:12:55.172Z,98484.00
2023-01-01T09:15:22.819Z,98478.00
2023-01-01T09:17:50.422Z,98491.00
2023-01-01T09:20:18.038Z,98493.00
2023-01-01T09:22:45.640Z,98496.00
2023-01-01T09:25:14.620Z,98497.00
2023-01-01T09:27:42.415Z,98500.00
2023-01-01T09:30:11.137Z,98505.00
2023-01-01T09:32:38.804Z,98510.00
2023-01-01T09:35:07.421Z,98512.00
2023-01-01T09:37:35.737Z,98512.00
2023-01-01T09:40:03.747Z,98514.00
2023-01-01T09:42:41.197Z,98510.00
2023-01-01T09:45:24.781Z,98511.00
2023-01-01T09:47:56.185Z,98514.00
2023-01-01T09:50:26.145Z,98523.00
2023-01-01T09:52:57.662Z,98517.00
2023-01-01T09:55:30.494Z,98517.00
2023-01-01T09:58:00.045Z,98511.00
2023-01-01T10:00:31.898Z,98514.00
2023-01-01T10:03:11.716Z,98503.00
2023-01-01T10:05:50.145Z,98498.00
2023-01-01T10:08:28.697Z,98495.00
2023-01-01T10:11:06.048Z,98489.00
2023-01-01T10:13:38.648Z,98475.00
2023-01-01T10:16:11.490Z,98478.00
2023-01-01T10:18:41.397Z,98469.00
2023-01-01T10:21:16.477Z,98469.00
2023-01-01T10:23:48.255Z,98476.00
2023-01-01T10:26:18.710Z,98475.00
2023-01-01T10:29:01.530Z,98486.00
2023-01-01T10:31:33.513Z,98480.00
2023-01-01T10:34:05.247Z,98485.00
2023-01-01T10:36:32.905Z,98477.00
2023-01-01T10:39:00.539Z,98479.00
2023-01-01T10:41:28.178Z,98477.00
2023-01-01T10:43:57.232Z,98480.00
2023-01-01T10:46:31.767Z,98479.00
2023-01-01T10:49:10.481Z,98484.00
2023-01-01T10:51:42.849Z,98476.00
2023-01-01T10:54:31.684Z,98477.00
2023-01-01T10:56:59.829Z,98476.00
2023-01-01T10:59:37.191Z,98491.00
2023-01-01T11:02:20.592Z,98487.00
2023-01-01T11:04:48.725Z,98491.00
2023-01-01T11:07:22.779Z,98485.00
2023-01-01T11:10:02.708Z,98503.00
2023-01-01T11:15:33.182Z,98485.00
2023-01-01T11:18:05.703Z,98489.00
2023-01-01T11:20:34.780Z,98489.00
2023-01-01T11:23:19.489Z,98479.00
2023-01-01T11:25:59.657Z,98489.00
2023-01-01T11:28:28.683Z,98487.00
2023-01-01T11:31:04.690Z,98479.00
2023-01-01T11:33:34.517Z,98472.00
2023-01-01T11:36:03.910Z,98478.00
2023-01-01T11:38:31.709Z,98469.00
2023-01-01T11:41:05.304Z,98469.00
2023-01-01T11:43:39.694Z,98466.00
2023-01-01T11:46:11.796Z,98461.00
2023-01-01T11:48:44.028Z,98449.00
2023-01-01T11:51:29.685Z,98431.00
2023-01-01T11:54:11.694Z,98439.00
2023-01-01T11:56:40.371Z,98441.00
2023-01-01T11:59:16.435Z,98444.00
2023-01-01T12:01:49.196Z,98443.00
2023-01-01T12:04:21.673Z,98444.00
2023-01-01T12:06:54.971Z,98443.00
2023-01-01T12:09:28.922Z,98450.00
2023-01-01T12:12:05.254Z,98449.00
2023-01-01T12:14:41.580Z,98442.00
2023-01-01T12:17:19.703Z,98438.00
2023-01-01T12:19:57.775Z,98438.00
2023-01-01T12:22:25.741Z,98426.00
2023-01-01T12:24:54.739Z,98437.00
2023-01-01T12:27:36.104Z,98432.00
2023-01-01T12:30:12.892Z,98424.00
2023-01-01T12:33:08.261Z,98429.00
2023-01-01T12:35:50.896Z,98435.00
2023-01-01T12:38:31.071Z,98434.00
2023-01-01T12:41:06.550Z,98428.00
2023-01-01T12:43:43.492Z,98425.00
2023-01-01T12:46:24.237Z,98428.00
2023-01-01T12:49:21.023Z,98429.00
2023-01-01T12:51:55.574Z,98419.00
2023-01-01T12:54:42.785Z,98421.00
2023-01-01T12:57:16.116Z,98421.00
2023-01-01T12:59:48.708Z,98418.00
2023-01-01T13:02:21.164Z,98419.00
2023-01-01T13:04:54.946Z,98422.00
2023-01-01T13:07:28.640Z,98412.00
2023-01-01T13:09:57.338Z,98423.00
2023-01-01T13:12:26.384Z,98420.00
2023-01-01T13:14:54.056Z,98420.00
2023-01-01T13:17:23.598Z,98412.00
2023-01-01T13:19:58.561Z,98412.00
2023-01-01T13:22:39.617Z,98412.00
2023-01-01T13:25:20.291Z,98406.00
2023-01-01T13:28:06.237Z,98417.00
2023-01-01T13:30:48.282Z,98413.00
2023-01-01T13:33:26.210Z,98415.00
2023-01-01T13:36:33.171Z,98408.00
2023-01-01T13:39:01.376Z,98404.00
2023-01-01T13:41:35.637Z,98405.00
2023-01-01T13:44:23.098Z,98406.00
2023-01-01T13:47:05.850Z,98406.00
2023-01-01T13:49:49.818Z,98402.00
2023-01-01T13:52:40.226Z,98412.00
2023-01-01T13:55:46.869Z,98411.00
2023-01-01T13:58:59.193Z,98406.00
2023-01-01T14:01:54.929Z,98405.00
2023-01-01T14:04:35.402Z,98408.00
2023-01-01T14:07:40.978Z,98407.00
2023-01-01T14:10:26.691Z,98403.00
2023-01-01T14:12:56.360Z,98405.00
2023-01-01T14:15:27.305Z,98409.00
2023-01-01T14:17:56.705Z,98410.00
2023-01-01T14:20:37.417Z,98409.00
2023-01-01T14:23:10.085Z,98405.00
2023-01-01T14:25:42.136Z,98401.00
2023-01-01T14:28:18.929Z,98391.00
2023-01-01T14:30:46.972Z,98399.00
2023-01-01T14:33:23.895Z,98393.00
2023-01-01T14:35:55.183Z,98398.00
2023-01-01T14:38:27.827Z,98403.00
2023-01-01T14:41:10.077Z,98399.00
2023-01-01T14:43:38.712Z,98407.00
2023-01-01T14:46:11.195Z,98407.00
2023-01-01T14:48:44.286Z,98408.00
2023-01-01T14:51:15.998Z,98410.00
2023-01-01T14:53:44.471Z,98406.00
2023-01-01T14:56:23.339Z,98403.00
2023-01-01T14:58:51.115Z,98402.00
2023-01-01T15:01:24.500Z,98400.00
2023-01-01T15:04:00.435Z,98400.00
2023-01-01T15:06:29.295Z,98404.00
2023-01-01T15:08:57.924Z,98408.00
2023-01-01T15:11:29.257Z,98410.00
2023-01-01T15:14:00.150Z,98416.00
2023-01-01T15:16:31.116Z,98418.00
2023-01-01T15:19:17.490Z,98415.00
2023-01-01T15:21:45.352Z,98414.00
2023-01-01T15:24:15.485Z,98416.00
2023-01-01T15:26:49.804Z,98416.00
2023-01-01T15:29:28.133Z,98413.00
2023-01-01T15:31:58.863Z,98411.00
2023-01-01T15:34:30.331Z,98409.00
2023-01-01T15:37:08.869Z,98409.00
2023-01-01T15:39:46.805Z,98419.00
2023-01-01T15:42:33.153Z,98413.00
2023-01-01T15:45:16.632Z,98408.00
2023-01-01T15:47:44.710Z,98407.00
2023-01-01T15:50:20.731Z,98407.00
2023-01-01T15:52:55.209Z,98414.00
2023-01-01T15:55:26.072Z,98406.00
2023-01-01T15:57:56.090Z,98408.00
2023-01-01T16:00:25.429Z,98402.00
2023-01-01T16:02:55.364Z,98402.00
2023-01-01T16:05:25.782Z,98404.00
2023-01-01T16:07:59.931Z,98402.00
2023-01-01T16:10:27.693Z,98399.00
2023-01-01T16:12:56.714Z,98390.00
2023-01-01T16:15:24.586Z,98403.00
2023-01-01T16:17:52.571Z,98397.00
2023-01-01T16:20:22.484Z,98398.00
2023-01-01T16:22:50.163Z,98395.00
2023-01-01T16:25:20.073Z,98395.00
2023-01-01T16:27:48.125Z,98395.00
2023-01-01T16:30:17.228Z,98398.00
2023-01-01T16:32:46.111Z,98390.00
2023-01-01T16:35:14.577Z,98390.00
2023-01-01T16:37:42.201Z,98381.00
2023-01-01T16:40:10.760Z,98391.00
2023-01-01T16:42:39.284Z,98381.00
2023-01-01T16:45:08.102Z,98382.00
2023-01-01T16:47:37.113Z,98385.00
2023-01-01T16:50:05.270Z,98391.00
2023-01-01T16:52:33.900Z,98392.00
2023-01-01T16:55:01.694Z,98386.00
2023-01-01T16:57:29.465Z,98383.00
2023-01-01T16:59:57.448Z,98389.00
2023-01-01T17:02:25.275Z,98382.00
2023-01-01T17:04:54.288Z,98381.00
2023-01-01T17:07:21.899Z,98382.00
2023-01-01T17:09:49.497Z,98379.00
2023-01-01T17:12:17.147Z,98380.00
2023-01-01T17:14:44.789Z,98376.00
2023-01-01T17:17:12.383Z,98368.00
2023-01-01T17:19:40.048Z,98369.00
2023-01-01T17:22:09.059Z,98371.00
2023-01-01T17:24:36.680Z,98363.00
2023-01-01T17:27:04.450Z,98368.00
2023-01-01T17:29:32.113Z,98365.00
2023-01-01T17:31:59.776Z,98368.00
2023-01-01T17:34:27.708Z,98364.00
2023-01-01T17:36:55.351Z,98355.00
2023-01-01T17:39:24.299Z,98359.00
2023-01-01T17:41:52.090Z,98353.00
2023-01-01T17:44:19.724Z,98355.00
2023-01-01T17:46:48.689Z,98353.00
2023-01-01T17:49:16.483Z,98346.00
2023-01-01T17:51:44.353Z,98348.00
2023-01-01T17:54:13.767Z,98352.00
2023-01-01T17:56:42.887Z,98355.00
2023-01-01T17:59:11.091Z,98356.00
2023-01-01T18:01:38.881Z,98347.00
2023-01-01T18:04:08.314Z,98358.00
2023-01-01T18:06:41.394Z,98352.00
2023-01-01T18:09:12.558Z,98361.00
2023-01-01T18:11:41.230Z,98362.00
2023-01-01T18:14:11.060Z,98353.00
2023-01-01T18:16:40.112Z,98362.00
2023-01-01T18:19:07.796Z,98375.00
2023-01-01T18:21:35.844Z,98366.00
2023-01-01T18:24:03.641Z,98364.00
2023-01-01T18:26:32.294Z,98366.00
2023-01-01T18:29:01.695Z,98357.00
2023-01-01T18:31:32.455Z,98365.00
2023-01-01T18:34:01.603Z,98368.00
2023-01-01T18:36:31.509Z,98359.00
2023-01-01T18:39:01.411Z,98358.00
2023-01-01T18:41:53.563Z,98352.00
2023-01-01T18:44:23.263Z,98352.00
2023-01-01T18:46:55.735Z,98341.00
2023-01-01T18:49:25.208Z,98340.00
2023-01-01T18:51:56.729Z,98340.00
2023-01-01T18:54:26.006Z,98327.00
2023-01-01T18:57:02.687Z,98319.00
2023-01-01T18:59:30.326Z,98330.00
2023-01-01T19:01:59.391Z,98327.00
2023-01-01T19:04:27.262Z,98329.00
2023-01-01T19:06:54.883Z,98323.00
2023-01-01T19:09:25.390Z,98324.00
2023-01-01T19:11:54.973Z,98329.00
2023-01-01T19:14:24.631Z,98318.00
2023-01-01T19:16:56.068Z,98321.00
2023-01-01T19:19:26.827Z,98323.00
2023-01-01T19:22:02.631Z,98306.00
2023-01-01T19:24:33.794Z,98310.00
2023-01-01T19:27:10.827Z,98309.00
2023-01-01T19:29:42.883Z,98312.00
2023-01-01T19:32:10.581Z,98309.00
2023-01-01T19:34:39.901Z,98309.00
2023-01-01T19:37:07.903Z,98303.00
2023-01-01T19:39:36.250Z,98293.00
2023-01-01T19:42:06.852Z,98296.00
2023-01-01T19:44:35.755Z,98299.00
2023-01-01T19:47:04.734Z,98295.00
2023-01-01T19:49:32.821Z,98297.00
2023-01-01T19:52:03.500Z,98297.00
2023-01-01T19:54:31.108Z,98291.00
2023-01-01T19:56:58.709Z,98293.00
2023-01-01T19:59:33.000Z,98295.00
2023-01-01T20:04:50.044Z,98293.00
2023-01-01T20:07:19.272Z,98293.00
2023-01-01T20:09:46.897Z,98284.00
2023-01-01T20:12:14.596Z,98288.00
2023-01-01T20:14:42.214Z,98284.00
2023-01-01T20:17:09.815Z,98295.00
2023-01-01T20:19:38.977Z,98280.00
2023-01-01T20:22:13.867Z,98293.00
2023-01-01T20:24:44.647Z,98293.00
2023-01-01T20:27:13.489Z,98293.00
2023-01-01T20:29:40.530Z,98293.00
2023-01-01T20:32:12.445Z,98294.00
2023-01-01T20:34:40.862Z,98298.00
2023-01-01T20:37:26.595Z,98288.00
2023-01-01T20:39:55.668Z,98282.00
2023-01-01T20:42:23.282Z,98280.00
2023-01-01T20:44:50.872Z,98275.00
2023-01-01T20:47:18.470Z,98279.00
2023-01-01T20:49:46.130Z,98284.00
2023-01-01T20:52:13.736Z,98283.00
2023-01-01T20:54:41.340Z,98285.00
2023-01-01T20:57:10.359Z,98282.00
2023-01-01T20:59:38.684Z,98285.00
2023-01-01T21:02:08.672Z,98286.00
2023-01-01T21:04:39.676Z,98284.00
2023-01-01T21:07:09.082Z,98275.00
2023-01-01T21:09:37.442Z,98278.00
2023-01-01T21:12:05.704Z,98281.00
2023-01-01T21:14:34.874Z,98282.00
2023-01-01T21:17:08.585Z,98280.00
2023-01-01T21:19:36.171Z,98283.00
2023-01-01T21:22:07.859Z,98280.00
2023-01-01T21:24:38.051Z,98283.00
2023-01-01T21:27:13.811Z,98281.00
2023-01-01T21:29:45.698Z,98270.00
2023-01-01T21:32:21.714Z,98278.00
2023-01-01T21:34:51.178Z,98275.00
2023-01-01T21:37:41.905Z,98269.00
2023-01-01T21:40:36.001Z,98280.00
2023-01-01T21:43:26.952Z,98280.00
2023-01-01T21:45:57.606Z,98270.00
2023-01-01T21:48:29.754Z,98267.00
2023-01-01T21:50:59.857Z,98270.00
2023-01-01T21:53:31.489Z,98266.00
2023-01-01T21:56:06.749Z,98269.00
2023-01-01T21:59:03.394Z,98270.00
2023-01-01T22:01:39.658Z,98272.00
2023-01-01T22:04:18.598Z,98275.00
2023-01-01T22:06:47.875Z,98268.00
2023-01-01T22:09:19.195Z,98272.00
2023-01-01T22:11:47.357Z,98264.00
2023-01-01T22:14:16.731Z,98261.00
2023-01-01T22:16:47.138Z,98260.00
2023-01-01T22:19:19.569Z,98259.00
2023-01-01T22:21:48.281Z,98259.00
2023-01-01T22:24:31.901Z,98268.00
2023-01-01T22:27:18.180Z,98262.00
2023-01-01T22:29:46.589Z,98265.00
2023-01-01T22:32:20.599Z,98270.00
2023-01-01T22:34:49.350Z,98279.00
2023-01-01T22:37:20.376Z,98288.00
2023-01-01T22:39:48.731Z,98275.00
2023-01-01T22:42:19.453Z,98285.00
2023-01-01T22:44:54.273Z,98286.00
2023-01-01T22:47:26.607Z,98281.00
2023-01-01T22:49:54.256Z,98281.00
2023-01-01T22:52:21.837Z,98279.00
2023-01-01T22:54:49.641Z,98286.00
2023-01-01T22:57:17.243Z,98285.00
2023-01-01T22:59:44.899Z,98287.00
2023-01-01T23:02:12.766Z,98285.00
2023-01-01T23:04:41.756Z,98278.00
2023-01-01T23:07:14.270Z,98285.00
2023-01-01T23:09:42.618Z,98282.00
2023-01-01T23:12:10.357Z,98281.00
2023-01-01T23:14:55.948Z,98288.00
2023-01-01T23:17:23.559Z,98278.00
2023-01-01T23:19:53.544Z,98274.00
2023-01-01T23:22:21.842Z,98274.00
2023-01-01T23:24:49.516Z,98266.00
2023-01-01T23:27:17.112Z,98285.00
2023-01-01T23:29:47.541Z,98263.00
2023-01-01T23:32:16.015Z,98259.00
2023-01-01T23:34:45.005Z,98258.00
2023-01-01T23:37:14.925Z,98263.00
2023-01-01T23:39:42.540Z,98254.00
2023-01-01T23:42:10.114Z,98258.00
2023-01-01T23:44:38.052Z,98257.00
2023-01-01T23:47:06.003Z,98255.00
2023-01-01T23:49:34.419Z,98257.00
2023-01-01T23:52:02.794Z,98249.00
2023-01-01T23:54:31.777Z,98244.00
2023-01-01T23:56:59.383Z,98235.00
2023-01-01T23:59:27.137Z,98236.00
